Terminal Aerodrome Forecast
Issued by NWS Louisville, KY

Home | Current Version | Previous Version | Text Only | Print | Product List | Glossary On
Versions: 1 2 3 4 5 6 7 8 9 10 11 12 13 14 15
000
FTUS43 KLMK 231120
TAFSDF
TAF
KSDF 231120Z 2312/2418 34018G23KT P6SM VCSH BKN015
      TEMPO 2312/2316 BKN008
     FM231800 33015G19KT P6SM BKN010
     FM240300 30012KT P6SM BKN010
     FM241200 29006KT P6SM BKN025=

USA.gov is the U.S. government's official web portal to all federal, state and local government web resources and services.